Terminal Aerodrome Forecast
Issued by NWS

Home | Current Version | Previous Version | Text Only | Print | Product List | Glossary On
Versions: 1 2 3 4 5 6 7 8 9 10 11 12 13 14 15 16 17 18 19 20 21 22 23 24
000
FTUS44 KTSA 272300
TAFBVO
TAF
KBVO 272320Z 2800/2824 VRB03KT P6SM SCT040 BKN120
     FM280300 16002KT P6SM VCTS SCT035CB OVC100
     FM281200 VRB03KT P6SM SCT050 BKN250 PROB30 2812/2818 5SM -TSRA
      BR BKN050CB
     FM281800 VRB03KT P6SM SCT050 BKN250 PROB30 2818/2824 5SM -TSRA
      BR BKN050CB=

USA.gov is the U.S. government's official web portal to all federal, state and local government web resources and services.